createdAt,value
2019-02-11T00:01:26.836Z,70.96
2019-02-11T00:04:02.743Z,70.90
2019-02-11T00:06:34.929Z,69.97
2019-02-11T00:09:12.600Z,69.31
2019-02-11T00:11:45.894Z,69.48
2019-02-11T00:14:21.082Z,68.60
2019-02-11T00:16:57.031Z,68.38
2019-02-11T00:19:29.406Z,67.89
2019-02-11T00:22:04.684Z,67.74
2019-02-11T00:24:39.293Z,67.19
2019-02-11T00:27:16.418Z,67.32
2019-02-11T00:29:48.374Z,66.96
2019-02-11T00:32:20.854Z,66.62
2019-02-11T00:34:53.164Z,66.69
2019-02-11T00:37:25.349Z,66.85
2019-02-11T00:40:01.712Z,67.13
2019-02-11T00:42:33.935Z,67.87
2019-02-11T00:45:08.511Z,68.42
2019-02-11T00:47:43.491Z,68.85
2019-02-11T00:50:15.925Z,69.71
2019-02-11T00:52:50.062Z,70.23
2019-02-11T00:55:24.966Z,70.85
2019-02-11T00:58:01.374Z,71.15
2019-02-11T01:00:33.538Z,70.98
2019-02-11T01:03:05.402Z,70.94
2019-02-11T01:05:39.883Z,70.71
2019-02-11T01:08:13.754Z,70.64
2019-02-11T01:10:48.516Z,70.25
2019-02-11T01:13:27.433Z,70.83
2019-02-11T01:15:54.848Z,70.63
2019-02-11T01:18:30.290Z,71.30
2019-02-11T01:21:11.698Z,71.38
2019-02-11T01:23:49.237Z,71.74
2019-02-11T01:26:21.291Z,72.68
2019-02-11T01:28:53.074Z,72.71
2019-02-11T01:31:29.522Z,73.10
2019-02-11T01:34:06.544Z,73.04
2019-02-11T01:36:47.480Z,73.25
2019-02-11T01:39:19.842Z,73.62
2019-02-11T01:41:52.295Z,74.57
2019-02-11T01:44:27.727Z,76.20
2019-02-11T01:47:03.227Z,78.29
2019-02-11T01:49:37.476Z,81.27
2019-02-11T01:52:13.990Z,83.35
2019-02-11T01:54:47.941Z,83.03
2019-02-11T01:57:21.973Z,83.44
2019-02-11T01:59:54.362Z,84.83
2019-02-11T02:02:29.330Z,85.56
2019-02-11T02:05:13.291Z,86.32
2019-02-11T02:07:47.539Z,86.44
2019-02-11T02:10:19.861Z,86.11
2019-02-11T02:12:52.203Z,86.46
2019-02-11T02:15:25.393Z,87.12
2019-02-11T02:18:01.683Z,86.71
2019-02-11T02:20:37.170Z,85.88
2019-02-11T02:23:09.669Z,86.23
2019-02-11T02:25:43.241Z,86.78
2019-02-11T02:28:16.642Z,88.09
2019-02-11T02:30:48.880Z,89.74
2019-02-11T02:33:22.434Z,88.02
2019-02-11T02:35:54.670Z,85.60
2019-02-11T02:38:34.646Z,85.91
2019-02-11T02:41:06.911Z,87.37
2019-02-11T02:43:55.138Z,88.85
2019-02-11T02:46:19.520Z,89.65
2019-02-11T02:48:56.444Z,91.35
2019-02-11T02:51:31.309Z,91.75
2019-02-11T02:54:04.095Z,91.99
2019-02-11T02:56:37.335Z,90.40
2019-02-11T02:59:09.884Z,88.77
2019-02-11T03:01:43.978Z,88.70
2019-02-11T03:04:16.525Z,88.36
2019-02-11T03:06:48.912Z,88.60
2019-02-11T03:09:21.236Z,88.34
2019-02-11T03:11:53.428Z,88.44
2019-02-11T03:14:26.801Z,88.65
2019-02-11T03:16:58.581Z,88.41
2019-02-11T03:19:30.374Z,88.34
2019-02-11T03:22:02.162Z,88.22
2019-02-11T03:24:33.959Z,88.12
2019-02-11T03:27:05.737Z,87.61
2019-02-11T03:29:37.585Z,88.13
2019-02-11T03:32:09.403Z,88.23
2019-02-11T03:34:41.188Z,88.97
2019-02-11T03:37:12.952Z,88.29
2019-02-11T03:39:44.806Z,88.80
2019-02-11T03:42:16.635Z,88.39
2019-02-11T03:44:48.384Z,89.30
2019-02-11T03:47:20.209Z,90.20
2019-02-11T03:49:51.980Z,90.97
2019-02-11T03:52:23.772Z,90.52
2019-02-11T03:54:55.596Z,90.73
2019-02-11T03:57:27.356Z,91.23
2019-02-11T03:59:59.116Z,91.48
2019-02-11T04:02:30.915Z,92.09
2019-02-11T04:05:03.588Z,92.24
2019-02-11T04:07:35.437Z,91.93
2019-02-11T04:10:07.960Z,92.17
2019-02-11T04:12:39.700Z,92.81
2019-02-11T04:15:11.529Z,93.04
2019-02-11T04:17:43.356Z,92.55
2019-02-11T04:20:15.376Z,92.67
2019-02-11T04:22:47.226Z,92.99
2019-02-11T04:25:18.978Z,92.75
2019-02-11T04:27:50.755Z,93.01
2019-02-11T04:30:22.493Z,93.38
2019-02-11T04:32:54.351Z,92.94
2019-02-11T04:35:29.333Z,92.68
2019-02-11T04:38:01.272Z,92.86
2019-02-11T04:40:33.084Z,93.16
2019-02-11T04:43:04.878Z,93.90
2019-02-11T04:45:36.639Z,93.98
2019-02-11T04:48:08.411Z,94.38
2019-02-11T04:50:40.255Z,94.38
2019-02-11T04:53:11.956Z,94.57
2019-02-11T04:55:43.800Z,95.10
2019-02-11T04:58:15.594Z,95.68
2019-02-11T05:00:47.392Z,96.11
2019-02-11T05:03:19.716Z,96.64
2019-02-11T05:05:51.537Z,96.82
2019-02-11T05:08:24.348Z,96.94
2019-02-11T05:10:56.145Z,97.06
2019-02-11T05:13:27.916Z,96.95
2019-02-11T05:15:59.725Z,96.98
2019-02-11T05:18:31.628Z,96.95
2019-02-11T05:21:03.480Z,96.90
2019-02-11T05:23:35.310Z,96.84
2019-02-11T05:26:07.097Z,96.05
2019-02-11T05:28:38.950Z,95.95
2019-02-11T05:31:10.740Z,95.05
2019-02-11T05:33:42.557Z,94.09
2019-02-11T05:36:14.378Z,93.94
2019-02-11T05:38:46.483Z,93.44
2019-02-11T05:41:18.383Z,93.07
2019-02-11T05:43:50.159Z,92.48
2019-02-11T05:46:21.936Z,92.61
2019-02-11T05:48:53.727Z,92.25
2019-02-11T05:51:25.695Z,92.12
2019-02-11T05:53:57.507Z,91.51
2019-02-11T05:56:29.400Z,90.97
2019-02-11T05:59:01.227Z,90.34
2019-02-11T06:01:33.309Z,89.93
2019-02-11T06:04:05.269Z,89.79
2019-02-11T06:06:37.129Z,89.78
2019-02-11T06:09:08.984Z,89.52
2019-02-11T06:11:40.783Z,89.21
2019-02-11T06:14:12.619Z,88.65
2019-02-11T06:16:44.590Z,88.23
2019-02-11T06:19:16.305Z,88.10
2019-02-11T06:21:49.221Z,87.93
2019-02-11T06:24:21.115Z,87.98
2019-02-11T06:26:52.954Z,87.99
2019-02-11T06:29:24.940Z,87.53
2019-02-11T06:31:59.291Z,87.25
2019-02-11T06:34:31.305Z,87.16
2019-02-11T06:37:03.300Z,87.27
2019-02-11T06:39:35.141Z,87.43
2019-02-11T06:42:07.156Z,87.08
2019-02-11T06:44:39.059Z,87.13
2019-02-11T06:47:10.965Z,87.05
2019-02-11T06:49:43.014Z,87.22
2019-02-11T06:52:14.945Z,87.22
2019-02-11T06:54:49.944Z,87.42
2019-02-11T06:57:21.905Z,87.14
2019-02-11T06:59:53.825Z,87.51
2019-02-11T07:02:25.851Z,87.30
2019-02-11T07:04:57.819Z,87.60
2019-02-11T07:07:29.927Z,87.47
2019-02-11T07:10:02.099Z,87.57
2019-02-11T07:12:34.058Z,87.35
2019-02-11T07:15:07.309Z,87.46
2019-02-11T07:17:39.384Z,87.49
2019-02-11T07:20:11.643Z,86.88
2019-02-11T07:22:43.526Z,86.72
2019-02-11T07:25:16.692Z,86.61
2019-02-11T07:27:48.715Z,86.59
2019-02-11T07:30:20.734Z,86.22
2019-02-11T07:32:52.733Z,85.69
2019-02-11T07:35:24.921Z,85.55
2019-02-11T07:37:56.745Z,85.06
2019-02-11T07:40:29.853Z,84.82
2019-02-11T07:43:21.195Z,84.68
2019-02-11T07:45:59.097Z,84.26
2019-02-11T07:48:30.943Z,83.68
2019-02-11T07:51:04.074Z,83.30
2019-02-11T07:53:35.941Z,83.48
2019-02-11T07:56:07.838Z,83.55
2019-02-11T07:58:39.738Z,83.90
2019-02-11T08:01:11.603Z,84.65
2019-02-11T08:03:43.440Z,85.36
2019-02-11T08:06:28.167Z,85.45
2019-02-11T08:09:19.716Z,85.30
2019-02-11T08:11:53.877Z,85.30
2019-02-11T08:14:26.393Z,85.44
2019-02-11T08:17:08.734Z,86.02
2019-02-11T08:19:41.851Z,86.47
2019-02-11T08:22:23.031Z,86.28
2019-02-11T08:25:02.447Z,86.48
2019-02-11T08:27:47.087Z,86.46
2019-02-11T08:30:28.969Z,86.64
2019-02-11T08:33:03.013Z,85.62
2019-02-11T08:35:36.142Z,86.08
2019-02-11T08:38:09.931Z,85.09
2019-02-11T08:40:42.870Z,83.73
2019-02-11T08:43:14.974Z,83.55
2019-02-11T08:45:48.152Z,83.64
2019-02-11T08:48:21.602Z,82.76
2019-02-11T08:50:54.028Z,82.52
2019-02-11T08:53:33.510Z,82.64
2019-02-11T08:56:08.095Z,82.86
2019-02-11T08:58:48.398Z,82.83
2019-02-11T09:01:29.110Z,83.00
2019-02-11T09:04:06.459Z,83.90
2019-02-11T09:06:47.578Z,83.68
2019-02-11T09:09:18.606Z,83.24
2019-02-11T09:11:54.943Z,83.34
2019-02-11T09:14:36.653Z,83.55
2019-02-11T09:17:10.916Z,84.06
2019-02-11T09:19:47.722Z,83.93
2019-02-11T09:22:32.962Z,84.02
2019-02-11T09:25:10.306Z,84.30
2019-02-11T09:27:49.254Z,83.45
2019-02-11T09:30:25.748Z,82.76
2019-02-11T09:32:58.264Z,82.45
2019-02-11T09:35:47.802Z,82.49
2019-02-11T09:38:30.919Z,82.44
2019-02-11T09:41:04.710Z,82.48
2019-02-11T09:43:40.853Z,83.78
2019-02-11T09:46:17.257Z,84.70
2019-02-11T09:48:49.633Z,85.12
2019-02-11T09:51:22.875Z,85.87
2019-02-11T09:53:56.309Z,84.28
2019-02-11T09:56:32.638Z,84.79
2019-02-11T09:59:06.106Z,84.18
2019-02-11T10:01:39.739Z,82.88
2019-02-11T10:04:17.997Z,80.11
2019-02-11T10:06:52.261Z,79.53
2019-02-11T10:09:26.169Z,79.43
2019-02-11T10:12:04.097Z,80.25
2019-02-11T10:14:41.005Z,78.74
2019-02-11T10:17:14.793Z,76.79
2019-02-11T10:19:49.069Z,76.04
2019-02-11T10:22:28.622Z,74.12
2019-02-11T10:25:03.015Z,74.46
2019-02-11T10:27:35.249Z,75.38
2019-02-11T10:30:10.193Z,77.33
2019-02-11T10:32:49.613Z,79.34
2019-02-11T10:35:31.059Z,80.00
2019-02-11T10:38:07.952Z,81.16
2019-02-11T10:40:43.181Z,82.44
2019-02-11T10:43:17.133Z,82.55
2019-02-11T10:45:54.706Z,83.75
2019-02-11T10:48:29.144Z,84.72
2019-02-11T10:51:01.578Z,84.66
2019-02-11T10:53:33.927Z,85.05
2019-02-11T10:56:06.325Z,84.17
2019-02-11T10:58:44.034Z,83.75
2019-02-11T11:01:23.778Z,82.66
2019-02-11T11:03:57.276Z,81.50
2019-02-11T11:06:33.817Z,79.80
2019-02-11T11:09:10.826Z,78.31
2019-02-11T11:11:43.479Z,77.64
2019-02-11T11:14:30.381Z,78.15
2019-02-11T11:17:09.417Z,76.91
2019-02-11T11:19:45.086Z,77.69
2019-02-11T11:22:17.761Z,75.93
2019-02-11T11:25:03.825Z,76.38
2019-02-11T11:27:46.454Z,75.04
2019-02-11T11:30:27.210Z,73.48
2019-02-11T11:33:17.941Z,72.52
2019-02-11T11:35:55.279Z,71.66
2019-02-11T11:38:29.705Z,70.67
2019-02-11T11:41:11.888Z,71.85
2019-02-11T11:43:56.378Z,73.25
2019-02-11T11:46:41.338Z,72.38
2019-02-11T11:49:13.877Z,73.51
2019-02-11T11:51:47.356Z,74.25
2019-02-11T11:54:20.026Z,74.68
2019-02-11T11:56:52.006Z,74.61
2019-02-11T11:59:26.713Z,74.88
2019-02-11T12:01:59.106Z,74.09
2019-02-11T12:04:31.171Z,73.85
2019-02-11T12:07:03.177Z,73.97
2019-02-11T12:09:35.706Z,72.21
2019-02-11T12:12:08.592Z,70.10
2019-02-11T12:14:43.724Z,69.42
2019-02-11T12:17:18.379Z,66.96
2019-02-11T12:19:50.617Z,66.42
2019-02-11T12:22:22.712Z,65.90
2019-02-11T12:24:56.901Z,65.51
2019-02-11T12:27:30.668Z,64.49
2019-02-11T12:30:02.484Z,64.68
2019-02-11T12:32:34.708Z,64.90
2019-02-11T12:35:07.124Z,62.77
2019-02-11T12:37:39.011Z,63.28
2019-02-11T12:40:11.936Z,61.25
2019-02-11T12:42:47.970Z,60.47
2019-02-11T12:45:22.199Z,61.08
2019-02-11T12:47:54.621Z,59.06
2019-02-11T12:50:26.717Z,58.92
2019-02-11T12:52:59.921Z,59.34
2019-02-11T12:55:32.274Z,59.30
2019-02-11T12:58:05.589Z,59.55
2019-02-11T13:00:40.181Z,59.16
2019-02-11T13:03:12.216Z,59.15
2019-02-11T13:05:47.378Z,58.65
2019-02-11T13:08:24.033Z,57.97
2019-02-11T13:11:05.273Z,58.68
2019-02-11T13:13:37.026Z,58.22
2019-02-11T13:16:10.515Z,58.86
2019-02-11T13:18:42.392Z,58.90
2019-02-11T13:21:17.566Z,58.97
2019-02-11T13:23:49.539Z,57.34
2019-02-11T13:26:21.525Z,56.85
2019-02-11T13:28:53.574Z,57.84
2019-02-11T13:31:25.713Z,57.91
2019-02-11T13:33:57.685Z,57.63
2019-02-11T13:36:29.795Z,57.85
2019-02-11T13:39:01.989Z,57.32
2019-02-11T13:41:37.341Z,57.40
2019-02-11T13:44:11.679Z,58.15
2019-02-11T13:46:45.409Z,57.46
2019-02-11T13:49:18.228Z,56.95
2019-02-11T13:51:50.429Z,57.19
2019-02-11T13:54:22.413Z,56.67
2019-02-11T13:56:57.413Z,57.21
2019-02-11T13:59:29.355Z,56.75
2019-02-11T14:02:01.581Z,55.97
2019-02-11T14:04:36.479Z,56.29
2019-02-11T14:07:18.000Z,56.51
2019-02-11T14:09:49.932Z,56.49
2019-02-11T14:12:24.799Z,56.69
2019-02-11T14:14:56.897Z,56.12
2019-02-11T14:17:29.029Z,56.75
2019-02-11T14:20:05.342Z,57.52
2019-02-11T14:22:39.048Z,58.10
2019-02-11T14:25:11.967Z,57.91
2019-02-11T14:27:44.681Z,58.63
2019-02-11T14:30:17.877Z,58.52
2019-02-11T14:32:49.964Z,59.25
2019-02-11T14:35:22.226Z,58.50
2019-02-11T14:37:54.475Z,59.28
2019-02-11T14:40:26.540Z,62.12
2019-02-11T14:42:58.769Z,64.47
2019-02-11T14:45:30.878Z,68.32
2019-02-11T14:48:03.183Z,71.59
2019-02-11T14:50:35.168Z,73.68
2019-02-11T14:53:07.231Z,73.92
2019-02-11T14:55:39.379Z,74.38
2019-02-11T14:58:11.430Z,74.83
2019-02-11T15:00:43.511Z,75.17
2019-02-11T15:03:15.402Z,75.74
2019-02-11T15:05:50.487Z,76.28
2019-02-11T15:08:22.447Z,76.84
2019-02-11T15:10:54.324Z,76.85
2019-02-11T15:13:26.139Z,76.77
2019-02-11T15:15:58.017Z,76.91
2019-02-11T15:18:34.307Z,77.17
2019-02-11T15:21:06.707Z,77.42
2019-02-11T15:23:38.633Z,77.17
2019-02-11T15:26:10.636Z,77.61
2019-02-11T15:28:42.699Z,77.89
2019-02-11T15:31:14.638Z,78.12
2019-02-11T15:33:46.724Z,78.35
2019-02-11T15:36:18.704Z,78.84
2019-02-11T15:38:50.616Z,79.16
2019-02-11T15:41:22.484Z,78.84
2019-02-11T15:43:54.340Z,79.11
2019-02-11T15:46:26.299Z,79.01
2019-02-11T15:48:58.823Z,78.85
2019-02-11T15:51:30.881Z,78.81
2019-02-11T15:54:02.802Z,78.71
2019-02-11T15:56:34.699Z,78.88
2019-02-11T15:59:06.537Z,80.14
2019-02-11T16:01:39.398Z,80.46
2019-02-11T16:04:12.200Z,78.55
2019-02-11T16:06:44.078Z,78.22
2019-02-11T16:09:15.972Z,77.87
2019-02-11T16:11:47.794Z,77.99
2019-02-11T16:14:19.709Z,76.75
2019-02-11T16:16:51.776Z,76.68
2019-02-11T16:19:23.726Z,76.69
2019-02-11T16:21:55.628Z,76.94
2019-02-11T16:24:34.260Z,77.18
2019-02-11T16:27:18.863Z,77.20
2019-02-11T16:29:59.937Z,77.37
2019-02-11T16:32:30.411Z,77.45
2019-02-11T16:35:02.525Z,77.52
2019-02-11T16:37:34.754Z,77.61
2019-02-11T16:40:09.151Z,77.99
2019-02-11T16:42:41.151Z,78.18
2019-02-11T16:45:15.490Z,78.11
2019-02-11T16:47:47.590Z,78.18
2019-02-11T16:50:22.532Z,78.34
2019-02-11T16:52:55.409Z,78.57
2019-02-11T16:55:27.721Z,78.56
2019-02-11T16:58:00.104Z,78.25
2019-02-11T17:00:32.126Z,78.37
2019-02-11T17:03:41.428Z,78.64
2019-02-11T17:06:10.956Z,78.78
2019-02-11T17:08:52.485Z,78.69
2019-02-11T17:11:25.721Z,78.29
2019-02-11T17:13:58.860Z,77.92
2019-02-11T17:16:31.376Z,77.43
2019-02-11T17:19:09.466Z,77.57
2019-02-11T17:21:39.037Z,77.23
2019-02-11T17:24:11.318Z,77.52
2019-02-11T17:26:45.068Z,77.43
2019-02-11T17:29:17.470Z,77.76
2019-02-11T17:31:50.943Z,78.17
2019-02-11T17:34:24.422Z,78.20
2019-02-11T17:36:56.489Z,78.60
2019-02-11T17:39:28.311Z,78.82
2019-02-11T17:42:00.634Z,79.65
2019-02-11T17:44:32.865Z,79.84
2019-02-11T17:47:06.221Z,79.25
2019-02-11T17:49:40.700Z,79.58
2019-02-11T17:52:12.845Z,79.53
2019-02-11T17:54:44.934Z,79.49
2019-02-11T17:57:16.846Z,79.43
2019-02-11T17:59:49.407Z,79.31
2019-02-11T18:02:21.409Z,79.65
2019-02-11T18:04:53.486Z,79.93
2019-02-11T18:07:25.585Z,79.97
2019-02-11T18:09:57.517Z,80.17
2019-02-11T18:12:31.525Z,80.32
2019-02-11T18:15:09.107Z,80.48
2019-02-11T18:17:41.294Z,81.19
2019-02-11T18:20:21.677Z,81.04
2019-02-11T18:24:36.381Z,81.16
2019-02-11T18:30:31.281Z,81.84
2019-02-11T18:37:56.670Z,82.64
2019-02-11T18:40:31.053Z,82.58
2019-02-11T18:43:23.453Z,82.82
2019-02-11T18:45:57.025Z,83.36
2019-02-11T18:48:33.682Z,83.64
2019-02-11T18:51:06.195Z,83.93
2019-02-11T18:53:56.292Z,84.15
2019-02-11T18:56:56.396Z,83.97
2019-02-11T18:59:40.670Z,84.17
2019-02-11T19:02:12.751Z,83.01
2019-02-11T19:04:44.738Z,82.70
2019-02-11T19:07:16.700Z,81.71
2019-02-11T19:09:48.570Z,81.14
2019-02-11T19:12:20.397Z,81.66
2019-02-11T19:14:52.208Z,81.02
2019-02-11T19:17:24.060Z,80.20
2019-02-11T19:19:58.762Z,78.48
2019-02-11T19:22:30.661Z,76.19
2019-02-11T19:25:03.746Z,73.64
2019-02-11T19:27:35.906Z,73.01
2019-02-11T19:30:11.889Z,72.47
2019-02-11T19:32:43.976Z,72.89
2019-02-11T19:35:18.499Z,74.13
2019-02-11T19:37:51.031Z,75.56
2019-02-11T19:40:25.900Z,77.12
2019-02-11T19:43:01.944Z,78.64
2019-02-11T19:45:41.982Z,79.93
2019-02-11T19:48:14.325Z,81.01
2019-02-11T19:50:46.470Z,81.40
2019-02-11T19:53:51.988Z,81.58
2019-02-11T19:56:24.244Z,82.07
2019-02-11T19:58:57.733Z,82.86
2019-02-11T20:01:31.826Z,83.16
2019-02-11T20:04:07.597Z,83.65
2019-02-11T20:06:37.572Z,84.22
2019-02-11T20:09:10.088Z,84.29
2019-02-11T20:11:43.747Z,83.84
2019-02-11T20:14:15.813Z,83.17
2019-02-11T20:16:48.238Z,82.62
2019-02-11T20:19:20.118Z,83.03
2019-02-11T20:21:51.970Z,83.13
2019-02-11T20:24:23.961Z,83.06
2019-02-11T20:26:55.858Z,83.11
2019-02-11T20:29:27.957Z,83.17
2019-02-11T20:31:59.960Z,83.05
2019-02-11T20:34:31.850Z,82.75
2019-02-11T20:37:03.849Z,82.63
2019-02-11T20:39:35.806Z,82.34
2019-02-11T20:42:07.788Z,81.83
2019-02-11T20:44:40.756Z,81.47
2019-02-11T20:47:13.804Z,81.51
2019-02-11T20:49:51.001Z,81.32
2019-02-11T20:52:23.102Z,81.70
2019-02-11T20:54:55.140Z,81.69
2019-02-11T20:57:27.112Z,81.47
2019-02-11T20:59:59.217Z,81.23
2019-02-11T21:02:31.285Z,80.72
2019-02-11T21:05:03.193Z,80.04
2019-02-11T21:07:35.236Z,79.67
2019-02-11T21:10:09.026Z,79.06
2019-02-11T21:12:40.966Z,79.03
2019-02-11T21:15:14.547Z,79.46
2019-02-11T21:17:46.713Z,79.35
2019-02-11T21:20:35.099Z,79.16
2019-02-11T21:23:09.410Z,79.38
2019-02-11T21:25:41.260Z,79.11
2019-02-11T21:28:13.669Z,78.78
2019-02-11T21:30:45.598Z,78.82
2019-02-11T21:33:17.488Z,78.76
2019-02-11T21:35:49.419Z,78.93
2019-02-11T21:38:21.250Z,78.86
2019-02-11T21:40:53.155Z,79.22
2019-02-11T21:43:24.966Z,79.16
2019-02-11T21:45:56.840Z,79.18
2019-02-11T21:48:28.745Z,79.30
2019-02-11T21:51:00.665Z,79.34
2019-02-11T21:53:32.745Z,79.20
2019-02-11T21:56:04.622Z,79.10
2019-02-11T21:58:36.521Z,79.34
2019-02-11T22:01:08.295Z,79.36
2019-02-11T22:03:40.205Z,79.07
2019-02-11T22:06:12.291Z,78.87
2019-02-11T22:08:44.207Z,79.25
2019-02-11T22:11:16.075Z,79.23
2019-02-11T22:13:47.834Z,79.16
2019-02-11T22:16:19.642Z,79.54
2019-02-11T22:18:51.460Z,79.65
2019-02-11T22:21:23.367Z,79.57
2019-02-11T22:23:55.329Z,79.73
2019-02-11T22:26:27.189Z,79.90
2019-02-11T22:28:58.977Z,79.91
2019-02-11T22:31:31.540Z,80.11
2019-02-11T22:34:03.531Z,80.46
2019-02-11T22:36:35.409Z,80.67
2019-02-11T22:39:08.864Z,80.58
2019-02-11T22:41:41.045Z,80.73
2019-02-11T22:44:12.879Z,80.75
2019-02-11T22:46:44.719Z,81.09
2019-02-11T22:49:16.595Z,81.15
2019-02-11T22:51:48.572Z,81.14
2019-02-11T22:54:20.404Z,80.60
2019-02-11T22:56:52.352Z,80.73
2019-02-11T22:59:24.313Z,80.75
2019-02-11T23:01:58.435Z,80.53
2019-02-11T23:04:30.515Z,80.46
2019-02-11T23:07:02.633Z,80.46
2019-02-11T23:09:34.529Z,80.26
2019-02-11T23:12:06.474Z,80.37
2019-02-11T23:14:38.400Z,80.05
2019-02-11T23:17:10.331Z,80.15
2019-02-11T23:19:42.154Z,79.77
2019-02-11T23:22:14.104Z,79.69
2019-02-11T23:24:46.027Z,79.99
2019-02-11T23:27:17.881Z,79.54
2019-02-11T23:29:51.997Z,79.20
2019-02-11T23:32:25.297Z,79.19
2019-02-11T23:34:57.351Z,79.26
2019-02-11T23:37:29.228Z,79.03
2019-02-11T23:40:01.044Z,78.56
2019-02-11T23:42:34.193Z,78.62
2019-02-11T23:45:06.579Z,78.53
2019-02-11T23:47:38.403Z,78.42
2019-02-11T23:50:10.491Z,78.23
2019-02-11T23:52:42.299Z,78.44
2019-02-11T23:55:14.159Z,78.14
2019-02-11T23:57:45.974Z,78.01
